Aeroporto :







RITROVATECI SU...

 
LOGIN :

Iscrizione | Disclaimer

   EN    FR    IT 

 









Sommario :    VFR   VFR Marginale   IFR   IFR Intensivo   IFR Molto Intensivo
Visibilità : 
Base nubi : 
>= 8 km
>= 3000ft
5 / 8 km
1000 / 3000 ft
1500m / 5 km
500 / 1000 ft
800 / 1500m
200 / 500 ft
< 800m
< 200 ft
Simboli :   Temporali  Nebbia  Neve Forte  Precipitazioni Forti  Vento > 20 kt






- Altitudine del aeroporto : 326 ft
- Codice IATA : VEY


BIVM - Vestmannaeyjar

ULTIMO METAR :
  • 171400Z 34005KT 9999 FEW012 BKN030 03/M00 Q1014 R30/720094

METARs OBSOLETI :
  • 171300Z 31008KT 9999 FEW012 BKN030 03/M01 Q1014 R30/720094
  • 171200Z 26004KT 9999 FEW012 SCT030 03/M01 Q1014 R30/720094

TAF TAF BIVM
Valido dal 17 a 14 ore il 17 a 23 ore UTC


171323Z 1714/1723 02005KT 9999 FEW018 BKN030
BECMG 1719/1721 11012KT



MetMap, La meteo Aeronautica in un colpo d'occhio ! - Copyright ORBIFLY Dicembre 2007 - Disclaimer

ORBIFLY MET'MAP TEAM :

Programmazione e sviluppo : Alexandra Zaïnal
Concezione e sviluppo : Baudouin d'Aumeries
Co-Programmazione e sviluppo : Marc-Olivier Méhu
Supporto tecnico e logistico : Manuel Goepfert
Aiuto per la traduzione : Arnaldo La Scala

Contatto : metmap@orbifly.com




FONTI E CREDITI :

   NOAA